sensor_id;sensor_type;location;lat;lon;timestamp;P1;durP1;ratioP1;P2;durP2;ratioP2
12869;SDS011;6503;48.572;13.460;2023-04-12T00:02:19;5.18;;;3.97;;
12869;SDS011;6503;48.572;13.460;2023-04-12T00:04:46;7.60;;;4.80;;
12869;SDS011;6503;48.572;13.460;2023-04-12T00:07:19;8.10;;;4.78;;
12869;SDS011;6503;48.572;13.460;2023-04-12T00:09:47;5.78;;;3.85;;
12869;SDS011;6503;48.572;13.460;2023-04-12T00:12:14;6.07;;;3.67;;
12869;SDS011;6503;48.572;13.460;2023-04-12T00:14:43;7.47;;;4.60;;
12869;SDS011;6503;48.572;13.460;2023-04-12T00:17:12;7.05;;;4.70;;
12869;SDS011;6503;48.572;13.460;2023-04-12T00:19:40;7.03;;;4.70;;
12869;SDS011;6503;48.572;13.460;2023-04-12T00:22:07;9.27;;;5.20;;
12869;SDS011;6503;48.572;13.460;2023-04-12T00:24:36;8.30;;;4.95;;
12869;SDS011;6503;48.572;13.460;2023-04-12T00:27:04;7.55;;;4.88;;
12869;SDS011;6503;48.572;13.460;2023-04-12T00:29:32;7.68;;;5.40;;
12869;SDS011;6503;48.572;13.460;2023-04-12T00:31:59;8.82;;;5.22;;
12869;SDS011;6503;48.572;13.460;2023-04-12T00:34:31;11.55;;;5.95;;
12869;SDS011;6503;48.572;13.460;2023-04-12T00:37:00;19.23;;;5.88;;
12869;SDS011;6503;48.572;13.460;2023-04-12T00:39:28;13.00;;;6.05;;
12869;SDS011;6503;48.572;13.460;2023-04-12T00:41:55;29.50;;;6.70;;
12869;SDS011;6503;48.572;13.460;2023-04-12T00:44:22;8.25;;;5.32;;
12869;SDS011;6503;48.572;13.460;2023-04-12T00:46:50;8.20;;;5.10;;
12869;SDS011;6503;48.572;13.460;2023-04-12T00:49:17;11.73;;;5.30;;
12869;SDS011;6503;48.572;13.460;2023-04-12T00:51:46;24.65;;;6.07;;
12869;SDS011;6503;48.572;13.460;2023-04-12T00:54:14;66.90;;;7.65;;
12869;SDS011;6503;48.572;13.460;2023-04-12T00:56:42;42.05;;;7.38;;
12869;SDS011;6503;48.572;13.460;2023-04-12T00:59:10;15.18;;;6.28;;
12869;SDS011;6503;48.572;13.460;2023-04-12T01:01:37;10.68;;;5.90;;
12869;SDS011;6503;48.572;13.460;2023-04-12T01:04:05;9.90;;;5.38;;
12869;SDS011;6503;48.572;13.460;2023-04-12T01:06:36;26.42;;;6.20;;
12869;SDS011;6503;48.572;13.460;2023-04-12T01:09:08;24.20;;;6.97;;
12869;SDS011;6503;48.572;13.460;2023-04-12T01:11:39;13.75;;;5.30;;
12869;SDS011;6503;48.572;13.460;2023-04-12T01:14:09;12.13;;;5.13;;
12869;SDS011;6503;48.572;13.460;2023-04-12T01:16:40;7.10;;;5.28;;
12869;SDS011;6503;48.572;13.460;2023-04-12T01:19:11;17.38;;;5.60;;
12869;SDS011;6503;48.572;13.460;2023-04-12T01:21:44;15.80;;;5.13;;
12869;SDS011;6503;48.572;13.460;2023-04-12T01:24:21;9.73;;;5.35;;
12869;SDS011;6503;48.572;13.460;2023-04-12T01:26:49;7.95;;;5.13;;
12869;SDS011;6503;48.572;13.460;2023-04-12T01:29:19;7.72;;;5.82;;
12869;SDS011;6503;48.572;13.460;2023-04-12T01:31:49;5.90;;;4.22;;
12869;SDS011;6503;48.572;13.460;2023-04-12T01:34:17;7.40;;;5.28;;
12869;SDS011;6503;48.572;13.460;2023-04-12T01:36:45;9.20;;;5.50;;
12869;SDS011;6503;48.572;13.460;2023-04-12T01:39:13;7.15;;;4.97;;
12869;SDS011;6503;48.572;13.460;2023-04-12T01:41:41;7.57;;;5.38;;
12869;SDS011;6503;48.572;13.460;2023-04-12T01:44:11;7.45;;;5.07;;
12869;SDS011;6503;48.572;13.460;2023-04-12T01:46:41;9.45;;;4.47;;
12869;SDS011;6503;48.572;13.460;2023-04-12T01:49:09;5.85;;;4.47;;
12869;SDS011;6503;48.572;13.460;2023-04-12T01:51:38;6.00;;;4.40;;
12869;SDS011;6503;48.572;13.460;2023-04-12T01:54:10;5.10;;;4.32;;
12869;SDS011;6503;48.572;13.460;2023-04-12T01:56:39;6.07;;;4.78;;
12869;SDS011;6503;48.572;13.460;2023-04-12T01:59:08;6.93;;;4.63;;
12869;SDS011;6503;48.572;13.460;2023-04-12T02:01:36;7.05;;;4.47;;
12869;SDS011;6503;48.572;13.460;2023-04-12T02:04:06;6.55;;;4.15;;
12869;SDS011;6503;48.572;13.460;2023-04-12T02:06:34;4.65;;;3.92;;
12869;SDS011;6503;48.572;13.460;2023-04-12T02:09:03;5.32;;;3.88;;
12869;SDS011;6503;48.572;13.460;2023-04-12T02:11:31;7.53;;;4.25;;
12869;SDS011;6503;48.572;13.460;2023-04-12T02:13:58;13.35;;;4.20;;
12869;SDS011;6503;48.572;13.460;2023-04-12T02:16:26;5.65;;;4.40;;
12869;SDS011;6503;48.572;13.460;2023-04-12T02:18:54;6.50;;;4.70;;
12869;SDS011;6503;48.572;13.460;2023-04-12T02:21:26;5.68;;;4.53;;
12869;SDS011;6503;48.572;13.460;2023-04-12T02:23:53;5.25;;;4.32;;
12869;SDS011;6503;48.572;13.460;2023-04-12T02:26:21;6.03;;;4.10;;
12869;SDS011;6503;48.572;13.460;2023-04-12T02:28:48;7.18;;;4.72;;
12869;SDS011;6503;48.572;13.460;2023-04-12T02:31:16;6.10;;;4.10;;
12869;SDS011;6503;48.572;13.460;2023-04-12T02:33:44;6.68;;;4.28;;
12869;SDS011;6503;48.572;13.460;2023-04-12T02:36:11;5.45;;;4.85;;
12869;SDS011;6503;48.572;13.460;2023-04-12T02:38:40;8.15;;;4.70;;
12869;SDS011;6503;48.572;13.460;2023-04-12T02:41:07;6.70;;;5.05;;
12869;SDS011;6503;48.572;13.460;2023-04-12T02:43:35;7.85;;;5.10;;
12869;SDS011;6503;48.572;13.460;2023-04-12T02:46:02;7.82;;;4.38;;
12869;SDS011;6503;48.572;13.460;2023-04-12T02:48:30;7.10;;;5.13;;
12869;SDS011;6503;48.572;13.460;2023-04-12T02:50:57;7.40;;;5.28;;
12869;SDS011;6503;48.572;13.460;2023-04-12T02:53:24;10.40;;;5.50;;
12869;SDS011;6503;48.572;13.460;2023-04-12T02:55:53;8.13;;;4.53;;
12869;SDS011;6503;48.572;13.460;2023-04-12T02:58:25;6.00;;;4.60;;
12869;SDS011;6503;48.572;13.460;2023-04-12T03:00:52;8.10;;;4.60;;
12869;SDS011;6503;48.572;13.460;2023-04-12T03:03:21;7.30;;;5.00;;
12869;SDS011;6503;48.572;13.460;2023-04-12T03:05:48;5.88;;;4.95;;
12869;SDS011;6503;48.572;13.460;2023-04-12T03:08:16;8.45;;;5.03;;
12869;SDS011;6503;48.572;13.460;2023-04-12T03:10:44;6.57;;;4.75;;
12869;SDS011;6503;48.572;13.460;2023-04-12T03:13:13;8.38;;;4.75;;
12869;SDS011;6503;48.572;13.460;2023-04-12T03:15:40;8.32;;;4.65;;
12869;SDS011;6503;48.572;13.460;2023-04-12T03:18:08;6.63;;;5.15;;
12869;SDS011;6503;48.572;13.460;2023-04-12T03:20:36;10.48;;;5.32;;
12869;SDS011;6503;48.572;13.460;2023-04-12T03:25:32;9.05;;;5.97;;
12869;SDS011;6503;48.572;13.460;2023-04-12T03:28:01;9.55;;;6.20;;
12869;SDS011;6503;48.572;13.460;2023-04-12T03:30:30;9.85;;;6.15;;
12869;SDS011;6503;48.572;13.460;2023-04-12T03:32:57;6.97;;;5.45;;
12869;SDS011;6503;48.572;13.460;2023-04-12T03:35:24;7.35;;;5.70;;
12869;SDS011;6503;48.572;13.460;2023-04-12T03:37:52;8.07;;;6.00;;
12869;SDS011;6503;48.572;13.460;2023-04-12T03:40:20;11.40;;;6.65;;
12869;SDS011;6503;48.572;13.460;2023-04-12T03:42:48;9.55;;;6.95;;
12869;SDS011;6503;48.572;13.460;2023-04-12T03:45:15;14.30;;;6.75;;
12869;SDS011;6503;48.572;13.460;2023-04-12T03:47:44;21.00;;;6.72;;
12869;SDS011;6503;48.572;13.460;2023-04-12T03:50:11;18.38;;;6.57;;
12869;SDS011;6503;48.572;13.460;2023-04-12T03:52:38;13.50;;;7.10;;
12869;SDS011;6503;48.572;13.460;2023-04-12T03:55:06;10.23;;;6.70;;
12869;SDS011;6503;48.572;13.460;2023-04-12T03:57:35;12.23;;;7.00;;
12869;SDS011;6503;48.572;13.460;2023-04-12T04:00:03;10.43;;;6.97;;
12869;SDS011;6503;48.572;13.460;2023-04-12T04:02:32;12.55;;;6.45;;
12869;SDS011;6503;48.572;13.460;2023-04-12T04:05:01;11.82;;;6.85;;
12869;SDS011;6503;48.572;13.460;2023-04-12T04:07:29;9.13;;;6.03;;
12869;SDS011;6503;48.572;13.460;2023-04-12T04:09:57;9.77;;;5.63;;
12869;SDS011;6503;48.572;13.460;2023-04-12T04:12:24;9.90;;;6.72;;
12869;SDS011;6503;48.572;13.460;2023-04-12T04:14:53;10.48;;;5.90;;
12869;SDS011;6503;48.572;13.460;2023-04-12T04:17:20;8.65;;;5.82;;
12869;SDS011;6503;48.572;13.460;2023-04-12T04:19:47;8.85;;;5.95;;
12869;SDS011;6503;48.572;13.460;2023-04-12T04:22:17;7.55;;;5.50;;
12869;SDS011;6503;48.572;13.460;2023-04-12T04:24:45;9.30;;;5.53;;
12869;SDS011;6503;48.572;13.460;2023-04-12T04:27:14;6.70;;;4.85;;
12869;SDS011;6503;48.572;13.460;2023-04-12T04:29:41;10.98;;;6.57;;
12869;SDS011;6503;48.572;13.460;2023-04-12T04:32:09;8.77;;;4.88;;
12869;SDS011;6503;48.572;13.460;2023-04-12T04:34:39;7.25;;;4.97;;
12869;SDS011;6503;48.572;13.460;2023-04-12T04:37:07;7.82;;;5.00;;
12869;SDS011;6503;48.572;13.460;2023-04-12T04:39:37;6.13;;;4.65;;
12869;SDS011;6503;48.572;13.460;2023-04-12T04:42:05;5.38;;;4.57;;
12869;SDS011;6503;48.572;13.460;2023-04-12T04:44:36;10.48;;;5.55;;
12869;SDS011;6503;48.572;13.460;2023-04-12T04:47:04;7.30;;;5.22;;
12869;SDS011;6503;48.572;13.460;2023-04-12T04:49:32;6.82;;;5.13;;
12869;SDS011;6503;48.572;13.460;2023-04-12T04:52:00;6.18;;;4.25;;
12869;SDS011;6503;48.572;13.460;2023-04-12T04:54:28;7.32;;;4.95;;
12869;SDS011;6503;48.572;13.460;2023-04-12T04:56:58;5.85;;;4.60;;
12869;SDS011;6503;48.572;13.460;2023-04-12T04:59:27;7.07;;;4.70;;
12869;SDS011;6503;48.572;13.460;2023-04-12T05:01:54;7.03;;;4.28;;
12869;SDS011;6503;48.572;13.460;2023-04-12T05:04:22;6.75;;;4.28;;
12869;SDS011;6503;48.572;13.460;2023-04-12T05:06:49;7.53;;;4.60;;
12869;SDS011;6503;48.572;13.460;2023-04-12T05:09:17;9.15;;;5.18;;
12869;SDS011;6503;48.572;13.460;2023-04-12T05:11:45;6.65;;;4.75;;
12869;SDS011;6503;48.572;13.460;2023-04-12T05:14:14;7.35;;;4.95;;
12869;SDS011;6503;48.572;13.460;2023-04-12T05:16:42;5.70;;;4.30;;
12869;SDS011;6503;48.572;13.460;2023-04-12T05:19:09;6.78;;;4.95;;
12869;SDS011;6503;48.572;13.460;2023-04-12T05:21:37;8.77;;;5.63;;
12869;SDS011;6503;48.572;13.460;2023-04-12T05:24:04;7.40;;;4.85;;
12869;SDS011;6503;48.572;13.460;2023-04-12T05:26:32;6.03;;;4.47;;
12869;SDS011;6503;48.572;13.460;2023-04-12T05:29:01;7.43;;;4.65;;
12869;SDS011;6503;48.572;13.460;2023-04-12T05:31:30;6.53;;;5.00;;
12869;SDS011;6503;48.572;13.460;2023-04-12T05:33:57;7.85;;;5.50;;
12869;SDS011;6503;48.572;13.460;2023-04-12T05:36:25;8.63;;;5.07;;
12869;SDS011;6503;48.572;13.460;2023-04-12T05:38:52;8.23;;;4.72;;
12869;SDS011;6503;48.572;13.460;2023-04-12T05:41:19;6.88;;;4.45;;
12869;SDS011;6503;48.572;13.460;2023-04-12T05:43:47;8.55;;;4.78;;
12869;SDS011;6503;48.572;13.460;2023-04-12T05:46:14;8.07;;;4.70;;
12869;SDS011;6503;48.572;13.460;2023-04-12T05:48:45;7.85;;;4.93;;
12869;SDS011;6503;48.572;13.460;2023-04-12T05:51:19;8.43;;;5.20;;
12869;SDS011;6503;48.572;13.460;2023-04-12T05:53:49;9.35;;;5.00;;
12869;SDS011;6503;48.572;13.460;2023-04-12T05:59:09;6.05;;;4.70;;
12869;SDS011;6503;48.572;13.460;2023-04-12T06:02:09;6.97;;;4.80;;
12869;SDS011;6503;48.572;13.460;2023-04-12T07:37:02;9.57;;;5.35;;
12869;SDS011;6503;48.572;13.460;2023-04-12T07:39:38;10.55;;;5.57;;
12869;SDS011;6503;48.572;13.460;2023-04-12T07:42:08;7.90;;;5.45;;
12869;SDS011;6503;48.572;13.460;2023-04-12T07:44:36;10.75;;;5.82;;
12869;SDS011;6503;48.572;13.460;2023-04-12T07:50:22;11.98;;;5.95;;
12869;SDS011;6503;48.572;13.460;2023-04-12T07:53:33;9.90;;;6.25;;
12869;SDS011;6503;48.572;13.460;2023-04-12T07:56:00;8.07;;;5.15;;
12869;SDS011;6503;48.572;13.460;2023-04-12T08:03:56;8.75;;;5.43;;
12869;SDS011;6503;48.572;13.460;2023-04-12T08:06:46;7.40;;;5.25;;
12869;SDS011;6503;48.572;13.460;2023-04-12T08:12:34;7.85;;;5.22;;
12869;SDS011;6503;48.572;13.460;2023-04-12T08:15:14;7.22;;;5.32;;
12869;SDS011;6503;48.572;13.460;2023-04-12T08:17:47;8.07;;;5.18;;
12869;SDS011;6503;48.572;13.460;2023-04-12T08:20:15;8.30;;;5.15;;
12869;SDS011;6503;48.572;13.460;2023-04-12T08:22:43;6.22;;;5.25;;
12869;SDS011;6503;48.572;13.460;2023-04-12T08:25:16;8.68;;;5.80;;
12869;SDS011;6503;48.572;13.460;2023-04-12T08:27:53;7.80;;;5.85;;
12869;SDS011;6503;48.572;13.460;2023-04-12T08:30:35;9.43;;;5.90;;
12869;SDS011;6503;48.572;13.460;2023-04-12T08:36:18;9.73;;;6.78;;
12869;SDS011;6503;48.572;13.460;2023-04-12T08:39:02;11.07;;;6.93;;
12869;SDS011;6503;48.572;13.460;2023-04-12T08:44:43;7.82;;;5.85;;
12869;SDS011;6503;48.572;13.460;2023-04-12T08:47:20;9.10;;;6.57;;
12869;SDS011;6503;48.572;13.460;2023-04-12T08:50:02;8.57;;;6.80;;
12869;SDS011;6503;48.572;13.460;2023-04-12T08:52:44;10.07;;;7.18;;
12869;SDS011;6503;48.572;13.460;2023-04-12T08:55:20;12.00;;;6.80;;
12869;SDS011;6503;48.572;13.460;2023-04-12T08:58:01;9.20;;;6.18;;
12869;SDS011;6503;48.572;13.460;2023-04-12T09:00:46;11.90;;;6.45;;
12869;SDS011;6503;48.572;13.460;2023-04-12T09:03:16;12.48;;;6.72;;
12869;SDS011;6503;48.572;13.460;2023-04-12T09:08:14;7.80;;;6.00;;
12869;SDS011;6503;48.572;13.460;2023-04-12T09:11:07;8.43;;;5.38;;
12869;SDS011;6503;48.572;13.460;2023-04-12T09:13:49;7.30;;;5.20;;
12869;SDS011;6503;48.572;13.460;2023-04-12T09:16:20;10.75;;;5.82;;
12869;SDS011;6503;48.572;13.460;2023-04-12T09:19:07;10.13;;;6.20;;
12869;SDS011;6503;48.572;13.460;2023-04-12T09:21:56;8.20;;;5.80;;
12869;SDS011;6503;48.572;13.460;2023-04-12T09:24:46;10.93;;;5.70;;
12869;SDS011;6503;48.572;13.460;2023-04-12T09:27:27;8.15;;;5.10;;
12869;SDS011;6503;48.572;13.460;2023-04-12T09:35:56;9.80;;;4.97;;
12869;SDS011;6503;48.572;13.460;2023-04-12T09:38:36;9.77;;;5.00;;
12869;SDS011;6503;48.572;13.460;2023-04-12T09:41:20;7.70;;;5.05;;
12869;SDS011;6503;48.572;13.460;2023-04-12T09:44:09;8.80;;;5.18;;
12869;SDS011;6503;48.572;13.460;2023-04-12T09:47:10;9.48;;;5.05;;
12869;SDS011;6503;48.572;13.460;2023-04-12T09:49:52;10.48;;;5.28;;
12869;SDS011;6503;48.572;13.460;2023-04-12T09:55:24;10.60;;;5.95;;
12869;SDS011;6503;48.572;13.460;2023-04-12T10:00:38;9.38;;;6.55;;
12869;SDS011;6503;48.572;13.460;2023-04-12T10:03:10;9.27;;;6.00;;
12869;SDS011;6503;48.572;13.460;2023-04-12T10:08:17;11.73;;;6.57;;
12869;SDS011;6503;48.572;13.460;2023-04-12T10:11:11;9.13;;;5.60;;
12869;SDS011;6503;48.572;13.460;2023-04-12T10:21:26;7.97;;;4.30;;
12869;SDS011;6503;48.572;13.460;2023-04-12T10:23:56;5.57;;;4.20;;
12869;SDS011;6503;48.572;13.460;2023-04-12T10:26:35;8.02;;;4.50;;
12869;SDS011;6503;48.572;13.460;2023-04-12T11:03:17;5.13;;;3.10;;
12869;SDS011;6503;48.572;13.460;2023-04-12T11:06:14;4.65;;;3.17;;
12869;SDS011;6503;48.572;13.460;2023-04-12T11:09:02;5.43;;;3.10;;
12869;SDS011;6503;48.572;13.460;2023-04-12T11:11:35;4.25;;;2.60;;
12869;SDS011;6503;48.572;13.460;2023-04-12T11:14:52;3.85;;;2.83;;
12869;SDS011;6503;48.572;13.460;2023-04-12T11:18:02;6.20;;;3.10;;
12869;SDS011;6503;48.572;13.460;2023-04-12T11:23:23;7.90;;;3.22;;
12869;SDS011;6503;48.572;13.460;2023-04-12T11:26:36;4.10;;;3.10;;
12869;SDS011;6503;48.572;13.460;2023-04-12T11:29:17;5.13;;;2.90;;
12869;SDS011;6503;48.572;13.460;2023-04-12T11:32:16;5.63;;;3.10;;
12869;SDS011;6503;48.572;13.460;2023-04-12T11:35:02;8.43;;;2.90;;
12869;SDS011;6503;48.572;13.460;2023-04-12T11:55:11;5.82;;;3.10;;
12869;SDS011;6503;48.572;13.460;2023-04-12T11:57:52;5.03;;;3.10;;
12869;SDS011;6503;48.572;13.460;2023-04-12T12:03:12;4.10;;;2.80;;
12869;SDS011;6503;48.572;13.460;2023-04-12T12:05:53;5.53;;;3.28;;
12869;SDS011;6503;48.572;13.460;2023-04-12T12:08:49;4.93;;;3.15;;
12869;SDS011;6503;48.572;13.460;2023-04-12T12:25:49;6.55;;;4.20;;
12869;SDS011;6503;48.572;13.460;2023-04-12T12:28:35;4.28;;;3.40;;
12869;SDS011;6503;48.572;13.460;2023-04-12T12:31:04;4.38;;;3.50;;
12869;SDS011;6503;48.572;13.460;2023-04-12T12:33:47;7.03;;;3.55;;
12869;SDS011;6503;48.572;13.460;2023-04-12T12:39:32;7.22;;;4.57;;
12869;SDS011;6503;48.572;13.460;2023-04-12T12:42:11;12.60;;;10.00;;
12869;SDS011;6503;48.572;13.460;2023-04-12T12:45:00;5.05;;;3.67;;
12869;SDS011;6503;48.572;13.460;2023-04-12T12:47:58;4.07;;;2.95;;
12869;SDS011;6503;48.572;13.460;2023-04-12T12:50:52;5.95;;;3.83;;
12869;SDS011;6503;48.572;13.460;2023-04-12T12:53:25;4.70;;;3.72;;
12869;SDS011;6503;48.572;13.460;2023-04-12T12:56:11;7.65;;;3.80;;
12869;SDS011;6503;48.572;13.460;2023-04-12T12:59:01;5.03;;;3.95;;
12869;SDS011;6503;48.572;13.460;2023-04-12T13:01:34;6.07;;;4.57;;
12869;SDS011;6503;48.572;13.460;2023-04-12T13:06:53;6.25;;;4.57;;
12869;SDS011;6503;48.572;13.460;2023-04-12T13:18:15;6.18;;;4.28;;
12869;SDS011;6503;48.572;13.460;2023-04-12T13:20:51;6.55;;;3.63;;
12869;SDS011;6503;48.572;13.460;2023-04-12T13:23:19;5.82;;;3.90;;
12869;SDS011;6503;48.572;13.460;2023-04-12T13:26:06;4.10;;;3.70;;
12869;SDS011;6503;48.572;13.460;2023-04-12T13:28:48;7.22;;;4.38;;
12869;SDS011;6503;48.572;13.460;2023-04-12T13:31:31;5.75;;;4.22;;
12869;SDS011;6503;48.572;13.460;2023-04-12T13:34:04;6.68;;;3.88;;
12869;SDS011;6503;48.572;13.460;2023-04-12T13:36:42;7.85;;;4.65;;
12869;SDS011;6503;48.572;13.460;2023-04-12T13:39:32;6.95;;;4.28;;
12869;SDS011;6503;48.572;13.460;2023-04-12T13:42:06;4.93;;;4.07;;
12869;SDS011;6503;48.572;13.460;2023-04-12T13:44:50;5.00;;;4.33;;
12869;SDS011;6503;48.572;13.460;2023-04-12T13:47:24;4.03;;;3.38;;
12869;SDS011;6503;48.572;13.460;2023-04-12T13:53:05;6.65;;;4.28;;
12869;SDS011;6503;48.572;13.460;2023-04-12T13:55:49;5.20;;;3.65;;
12869;SDS011;6503;48.572;13.460;2023-04-12T13:58:31;5.28;;;4.20;;
12869;SDS011;6503;48.572;13.460;2023-04-12T14:03:52;6.38;;;3.67;;
12869;SDS011;6503;48.572;13.460;2023-04-12T14:06:42;4.95;;;3.72;;
12869;SDS011;6503;48.572;13.460;2023-04-12T14:15:25;5.80;;;3.90;;
12869;SDS011;6503;48.572;13.460;2023-04-12T14:46:04;4.97;;;2.75;;
12869;SDS011;6503;48.572;13.460;2023-04-12T14:48:59;3.70;;;2.80;;
12869;SDS011;6503;48.572;13.460;2023-04-12T14:51:44;4.70;;;2.53;;
12869;SDS011;6503;48.572;13.460;2023-04-12T14:54:32;4.18;;;3.20;;
12869;SDS011;6503;48.572;13.460;2023-04-12T15:07:07;6.10;;;2.85;;
12869;SDS011;6503;48.572;13.460;2023-04-12T15:09:40;3.83;;;2.65;;
12869;SDS011;6503;48.572;13.460;2023-04-12T15:12:42;3.88;;;2.65;;
12869;SDS011;6503;48.572;13.460;2023-04-12T15:15:22;7.63;;;2.90;;
12869;SDS011;6503;48.572;13.460;2023-04-12T15:17:50;4.28;;;2.28;;
12869;SDS011;6503;48.572;13.460;2023-04-12T15:20:20;5.38;;;2.58;;
12869;SDS011;6503;48.572;13.460;2023-04-12T15:22:56;2.70;;;2.20;;
12869;SDS011;6503;48.572;13.460;2023-04-12T15:25:26;3.40;;;2.38;;
12869;SDS011;6503;48.572;13.460;2023-04-12T15:27:57;3.72;;;2.10;;
12869;SDS011;6503;48.572;13.460;2023-04-12T15:30:25;3.55;;;1.80;;
12869;SDS011;6503;48.572;13.460;2023-04-12T15:32:53;4.18;;;2.45;;
12869;SDS011;6503;48.572;13.460;2023-04-12T15:35:21;4.60;;;2.20;;
12869;SDS011;6503;48.572;13.460;2023-04-12T15:37:48;3.53;;;2.15;;
12869;SDS011;6503;48.572;13.460;2023-04-12T15:40:19;4.82;;;2.25;;
12869;SDS011;6503;48.572;13.460;2023-04-12T15:42:49;3.60;;;2.58;;
12869;SDS011;6503;48.572;13.460;2023-04-12T15:45:18;4.80;;;2.90;;
12869;SDS011;6503;48.572;13.460;2023-04-12T15:47:46;4.20;;;2.47;;
12869;SDS011;6503;48.572;13.460;2023-04-12T15:50:14;4.38;;;2.50;;
12869;SDS011;6503;48.572;13.460;2023-04-12T15:52:45;3.97;;;1.80;;
12869;SDS011;6503;48.572;13.460;2023-04-12T15:55:15;3.75;;;2.78;;
12869;SDS011;6503;48.572;13.460;2023-04-12T15:57:47;4.00;;;2.47;;
12869;SDS011;6503;48.572;13.460;2023-04-12T16:00:16;3.45;;;2.45;;
12869;SDS011;6503;48.572;13.460;2023-04-12T16:02:54;4.65;;;1.88;;
12869;SDS011;6503;48.572;13.460;2023-04-12T16:07:53;3.00;;;2.10;;
12869;SDS011;6503;48.572;13.460;2023-04-12T16:10:21;5.40;;;1.83;;
12869;SDS011;6503;48.572;13.460;2023-04-12T16:13:04;3.22;;;2.03;;
12869;SDS011;6503;48.572;13.460;2023-04-12T16:15:34;3.58;;;2.10;;
12869;SDS011;6503;48.572;13.460;2023-04-12T16:18:02;3.25;;;2.10;;
12869;SDS011;6503;48.572;13.460;2023-04-12T16:20:30;4.10;;;2.00;;
12869;SDS011;6503;48.572;13.460;2023-04-12T16:22:57;2.60;;;1.67;;
12869;SDS011;6503;48.572;13.460;2023-04-12T16:25:28;2.38;;;1.80;;
12869;SDS011;6503;48.572;13.460;2023-04-12T16:27:56;3.65;;;1.90;;
12869;SDS011;6503;48.572;13.460;2023-04-12T16:30:27;2.95;;;1.77;;
12869;SDS011;6503;48.572;13.460;2023-04-12T16:32:55;3.53;;;1.80;;
12869;SDS011;6503;48.572;13.460;2023-04-12T16:35:36;2.47;;;1.80;;
12869;SDS011;6503;48.572;13.460;2023-04-12T16:38:04;3.20;;;1.88;;
12869;SDS011;6503;48.572;13.460;2023-04-12T16:40:32;3.47;;;2.10;;
12869;SDS011;6503;48.572;13.460;2023-04-12T16:43:00;4.57;;;1.90;;
12869;SDS011;6503;48.572;13.460;2023-04-12T16:45:28;4.82;;;2.13;;
12869;SDS011;6503;48.572;13.460;2023-04-12T16:47:56;2.33;;;1.60;;
12869;SDS011;6503;48.572;13.460;2023-04-12T16:50:26;5.70;;;1.90;;
12869;SDS011;6503;48.572;13.460;2023-04-12T16:52:54;2.83;;;1.65;;
12869;SDS011;6503;48.572;13.460;2023-04-12T16:55:21;3.38;;;1.98;;
12869;SDS011;6503;48.572;13.460;2023-04-12T16:57:49;5.20;;;2.78;;
12869;SDS011;6503;48.572;13.460;2023-04-12T17:00:17;3.47;;;2.25;;
12869;SDS011;6503;48.572;13.460;2023-04-12T17:02:49;3.95;;;2.47;;
12869;SDS011;6503;48.572;13.460;2023-04-12T17:05:17;6.50;;;2.95;;
12869;SDS011;6503;48.572;13.460;2023-04-12T17:07:45;6.40;;;3.13;;
12869;SDS011;6503;48.572;13.460;2023-04-12T17:10:13;4.30;;;2.60;;
12869;SDS011;6503;48.572;13.460;2023-04-12T17:12:42;4.88;;;2.50;;
12869;SDS011;6503;48.572;13.460;2023-04-12T17:15:10;3.13;;;2.45;;
12869;SDS011;6503;48.572;13.460;2023-04-12T17:17:40;5.50;;;2.75;;
12869;SDS011;6503;48.572;13.460;2023-04-12T17:20:11;4.28;;;2.90;;
12869;SDS011;6503;48.572;13.460;2023-04-12T17:22:40;5.57;;;3.00;;
12869;SDS011;6503;48.572;13.460;2023-04-12T17:25:08;5.05;;;3.40;;
12869;SDS011;6503;48.572;13.460;2023-04-12T17:27:35;4.57;;;3.05;;
12869;SDS011;6503;48.572;13.460;2023-04-12T17:30:04;3.75;;;3.03;;
12869;SDS011;6503;48.572;13.460;2023-04-12T17:32:32;4.20;;;2.97;;
12869;SDS011;6503;48.572;13.460;2023-04-12T17:35:03;7.13;;;3.58;;
12869;SDS011;6503;48.572;13.460;2023-04-12T17:37:32;5.38;;;3.58;;
12869;SDS011;6503;48.572;13.460;2023-04-12T17:40:00;5.70;;;3.80;;
12869;SDS011;6503;48.572;13.460;2023-04-12T17:42:28;9.95;;;5.63;;
12869;SDS011;6503;48.572;13.460;2023-04-12T17:44:56;7.53;;;4.85;;
12869;SDS011;6503;48.572;13.460;2023-04-12T17:47:24;7.82;;;4.95;;
12869;SDS011;6503;48.572;13.460;2023-04-12T17:49:53;6.77;;;4.87;;
12869;SDS011;6503;48.572;13.460;2023-04-12T17:52:20;8.50;;;4.88;;
12869;SDS011;6503;48.572;13.460;2023-04-12T17:54:49;8.60;;;5.28;;
12869;SDS011;6503;48.572;13.460;2023-04-12T17:57:23;9.43;;;5.25;;
12869;SDS011;6503;48.572;13.460;2023-04-12T17:59:51;8.77;;;5.85;;
12869;SDS011;6503;48.572;13.460;2023-04-12T18:02:19;6.90;;;5.15;;
12869;SDS011;6503;48.572;13.460;2023-04-12T18:04:46;8.30;;;5.68;;
12869;SDS011;6503;48.572;13.460;2023-04-12T18:07:14;14.25;;;6.82;;
12869;SDS011;6503;48.572;13.460;2023-04-12T18:09:42;13.77;;;7.80;;
12869;SDS011;6503;48.572;13.460;2023-04-12T18:12:11;11.60;;;7.50;;
12869;SDS011;6503;48.572;13.460;2023-04-12T18:14:40;11.57;;;7.15;;
12869;SDS011;6503;48.572;13.460;2023-04-12T18:17:09;9.75;;;6.40;;
12869;SDS011;6503;48.572;13.460;2023-04-12T18:19:36;10.55;;;6.05;;
12869;SDS011;6503;48.572;13.460;2023-04-12T18:22:04;8.43;;;5.90;;
12869;SDS011;6503;48.572;13.460;2023-04-12T18:24:31;12.82;;;6.43;;
12869;SDS011;6503;48.572;13.460;2023-04-12T18:26:59;10.60;;;6.50;;
12869;SDS011;6503;48.572;13.460;2023-04-12T18:29:29;13.50;;;7.65;;
12869;SDS011;6503;48.572;13.460;2023-04-12T18:34:24;10.45;;;7.50;;
12869;SDS011;6503;48.572;13.460;2023-04-12T18:36:51;14.30;;;9.45;;
12869;SDS011;6503;48.572;13.460;2023-04-12T18:39:19;12.43;;;8.90;;
12869;SDS011;6503;48.572;13.460;2023-04-12T18:41:46;9.77;;;7.78;;
12869;SDS011;6503;48.572;13.460;2023-04-12T18:44:13;11.93;;;7.88;;
12869;SDS011;6503;48.572;13.460;2023-04-12T18:49:12;9.85;;;6.40;;
12869;SDS011;6503;48.572;13.460;2023-04-12T18:51:40;9.07;;;6.53;;
12869;SDS011;6503;48.572;13.460;2023-04-12T18:54:08;8.32;;;5.50;;
12869;SDS011;6503;48.572;13.460;2023-04-12T18:56:37;6.85;;;5.15;;
12869;SDS011;6503;48.572;13.460;2023-04-12T18:59:06;9.85;;;5.75;;
12869;SDS011;6503;48.572;13.460;2023-04-12T19:01:35;10.88;;;6.78;;
12869;SDS011;6503;48.572;13.460;2023-04-12T19:04:03;14.63;;;7.90;;
12869;SDS011;6503;48.572;13.460;2023-04-12T19:06:34;12.93;;;7.68;;
12869;SDS011;6503;48.572;13.460;2023-04-12T19:09:02;11.98;;;7.68;;
12869;SDS011;6503;48.572;13.460;2023-04-12T19:11:29;11.82;;;7.97;;
12869;SDS011;6503;48.572;13.460;2023-04-12T19:13:56;10.88;;;7.82;;
12869;SDS011;6503;48.572;13.460;2023-04-12T19:16:24;15.00;;;9.40;;
12869;SDS011;6503;48.572;13.460;2023-04-12T19:18:53;17.30;;;10.20;;
12869;SDS011;6503;48.572;13.460;2023-04-12T19:21:21;15.40;;;9.60;;
12869;SDS011;6503;48.572;13.460;2023-04-12T19:23:49;12.80;;;9.40;;
12869;SDS011;6503;48.572;13.460;2023-04-12T19:26:17;12.07;;;8.93;;
12869;SDS011;6503;48.572;13.460;2023-04-12T19:28:45;12.57;;;8.68;;
12869;SDS011;6503;48.572;13.460;2023-04-12T19:31:13;11.55;;;9.25;;
12869;SDS011;6503;48.572;13.460;2023-04-12T19:33:41;17.73;;;11.38;;
12869;SDS011;6503;48.572;13.460;2023-04-12T19:36:09;21.02;;;12.05;;
12869;SDS011;6503;48.572;13.460;2023-04-12T19:38:37;18.42;;;12.93;;
12869;SDS011;6503;48.572;13.460;2023-04-12T19:41:08;18.77;;;12.52;;
12869;SDS011;6503;48.572;13.460;2023-04-12T19:43:36;19.30;;;12.80;;
12869;SDS011;6503;48.572;13.460;2023-04-12T19:46:03;17.63;;;12.55;;
12869;SDS011;6503;48.572;13.460;2023-04-12T19:48:31;15.95;;;9.77;;
12869;SDS011;6503;48.572;13.460;2023-04-12T19:50:59;15.70;;;9.50;;
12869;SDS011;6503;48.572;13.460;2023-04-12T19:53:26;12.90;;;8.95;;
12869;SDS011;6503;48.572;13.460;2023-04-12T19:55:54;12.13;;;7.88;;
12869;SDS011;6503;48.572;13.460;2023-04-12T19:58:24;16.55;;;10.00;;